sensor_id;sensor_type;location;lat;lon;timestamp;temperature;humidity
3752;DHT22;50827;47.014;7.652;2023-07-29T00:01:18;19.80;99.90
3752;DHT22;50827;47.014;7.652;2023-07-29T00:03:44;19.70;99.90
3752;DHT22;50827;47.014;7.652;2023-07-29T00:06:11;19.60;99.90
3752;DHT22;50827;47.014;7.652;2023-07-29T00:08:38;19.70;99.90
3752;DHT22;50827;47.014;7.652;2023-07-29T00:11:05;19.60;99.90
3752;DHT22;50827;47.014;7.652;2023-07-29T00:13:31;19.60;99.90
3752;DHT22;50827;47.014;7.652;2023-07-29T00:15:58;19.60;99.90
3752;DHT22;50827;47.014;7.652;2023-07-29T00:18:25;19.60;99.90
3752;DHT22;50827;47.014;7.652;2023-07-29T00:20:52;19.60;99.90
3752;DHT22;50827;47.014;7.652;2023-07-29T00:23:18;19.60;99.90
3752;DHT22;50827;47.014;7.652;2023-07-29T00:25:45;19.60;99.90
3752;DHT22;50827;47.014;7.652;2023-07-29T00:28:12;19.70;99.90
3752;DHT22;50827;47.014;7.652;2023-07-29T00:30:39;19.70;99.90
3752;DHT22;50827;47.014;7.652;2023-07-29T00:33:06;19.70;99.90
3752;DHT22;50827;47.014;7.652;2023-07-29T00:35:33;19.60;99.90
3752;DHT22;50827;47.014;7.652;2023-07-29T00:38:00;19.60;99.90
3752;DHT22;50827;47.014;7.652;2023-07-29T00:40:28;19.60;99.90
3752;DHT22;50827;47.014;7.652;2023-07-29T00:42:56;19.50;99.90
3752;DHT22;50827;47.014;7.652;2023-07-29T00:45:24;19.50;99.90
3752;DHT22;50827;47.014;7.652;2023-07-29T00:47:51;19.40;99.90
3752;DHT22;50827;47.014;7.652;2023-07-29T00:50:18;19.30;99.90
3752;DHT22;50827;47.014;7.652;2023-07-29T00:52:45;19.20;99.90
3752;DHT22;50827;47.014;7.652;2023-07-29T00:55:12;19.20;99.90
3752;DHT22;50827;47.014;7.652;2023-07-29T00:57:39;19.10;99.90
3752;DHT22;50827;47.014;7.652;2023-07-29T01:00:07;19.10;99.90
3752;DHT22;50827;47.014;7.652;2023-07-29T01:02:35;19.10;99.90
3752;DHT22;50827;47.014;7.652;2023-07-29T01:05:02;19.00;99.90
3752;DHT22;50827;47.014;7.652;2023-07-29T01:07:56;19.00;99.90
3752;DHT22;50827;47.014;7.652;2023-07-29T01:10:56;18.90;99.90
3752;DHT22;50827;47.014;7.652;2023-07-29T01:13:44;18.80;99.90
3752;DHT22;50827;47.014;7.652;2023-07-29T01:16:29;18.80;99.90
3752;DHT22;50827;47.014;7.652;2023-07-29T01:18:58;18.90;99.90
3752;DHT22;50827;47.014;7.652;2023-07-29T01:21:28;19.00;99.90
3752;DHT22;50827;47.014;7.652;2023-07-29T01:23:58;19.00;99.90
3752;DHT22;50827;47.014;7.652;2023-07-29T01:26:25;19.00;99.90
3752;DHT22;50827;47.014;7.652;2023-07-29T01:28:52;19.00;99.90
3752;DHT22;50827;47.014;7.652;2023-07-29T01:31:40;19.10;99.90
3752;DHT22;50827;47.014;7.652;2023-07-29T01:34:24;19.10;99.90
3752;DHT22;50827;47.014;7.652;2023-07-29T01:36:54;19.10;99.90
3752;DHT22;50827;47.014;7.652;2023-07-29T01:39:24;19.10;99.90
3752;DHT22;50827;47.014;7.652;2023-07-29T01:41:52;19.00;99.90
3752;DHT22;50827;47.014;7.652;2023-07-29T01:44:19;19.00;99.90
3752;DHT22;50827;47.014;7.652;2023-07-29T01:46:47;19.00;99.90
3752;DHT22;50827;47.014;7.652;2023-07-29T01:49:14;19.00;99.90
3752;DHT22;50827;47.014;7.652;2023-07-29T01:51:40;18.90;99.90
3752;DHT22;50827;47.014;7.652;2023-07-29T01:54:07;18.90;99.90
3752;DHT22;50827;47.014;7.652;2023-07-29T01:56:34;18.80;99.90
3752;DHT22;50827;47.014;7.652;2023-07-29T01:59:01;18.80;99.90
3752;DHT22;50827;47.014;7.652;2023-07-29T02:01:27;18.70;99.90
3752;DHT22;50827;47.014;7.652;2023-07-29T02:03:54;18.80;99.90
3752;DHT22;50827;47.014;7.652;2023-07-29T02:06:22;18.70;99.90
3752;DHT22;50827;47.014;7.652;2023-07-29T02:08:49;18.80;99.90
3752;DHT22;50827;47.014;7.652;2023-07-29T02:11:15;18.80;99.90
3752;DHT22;50827;47.014;7.652;2023-07-29T02:13:42;18.80;99.90
3752;DHT22;50827;47.014;7.652;2023-07-29T02:16:09;18.80;99.90
3752;DHT22;50827;47.014;7.652;2023-07-29T02:18:36;18.90;99.90
3752;DHT22;50827;47.014;7.652;2023-07-29T02:21:03;19.00;99.90
3752;DHT22;50827;47.014;7.652;2023-07-29T02:23:31;19.00;99.90
3752;DHT22;50827;47.014;7.652;2023-07-29T02:25:57;19.00;99.90
3752;DHT22;50827;47.014;7.652;2023-07-29T02:28:24;19.10;99.90
3752;DHT22;50827;47.014;7.652;2023-07-29T02:31:14;19.10;99.90
3752;DHT22;50827;47.014;7.652;2023-07-29T02:33:42;19.00;99.90
3752;DHT22;50827;47.014;7.652;2023-07-29T02:36:09;19.10;99.90
3752;DHT22;50827;47.014;7.652;2023-07-29T02:38:35;19.00;99.90
3752;DHT22;50827;47.014;7.652;2023-07-29T02:41:02;19.10;99.90
3752;DHT22;50827;47.014;7.652;2023-07-29T02:43:29;19.00;99.90
3752;DHT22;50827;47.014;7.652;2023-07-29T02:45:55;18.90;99.90
3752;DHT22;50827;47.014;7.652;2023-07-29T02:48:22;18.80;99.90
3752;DHT22;50827;47.014;7.652;2023-07-29T02:50:49;18.80;99.90
3752;DHT22;50827;47.014;7.652;2023-07-29T02:53:16;18.70;99.90
3752;DHT22;50827;47.014;7.652;2023-07-29T02:55:42;18.70;99.90
3752;DHT22;50827;47.014;7.652;2023-07-29T02:58:09;18.70;99.90
3752;DHT22;50827;47.014;7.652;2023-07-29T03:00:36;18.80;99.90
3752;DHT22;50827;47.014;7.652;2023-07-29T03:03:03;18.80;99.90
3752;DHT22;50827;47.014;7.652;2023-07-29T03:05:29;18.80;99.90
3752;DHT22;50827;47.014;7.652;2023-07-29T03:07:57;18.80;99.90
3752;DHT22;50827;47.014;7.652;2023-07-29T03:10:24;18.90;99.90
3752;DHT22;50827;47.014;7.652;2023-07-29T03:12:54;18.90;99.90
3752;DHT22;50827;47.014;7.652;2023-07-29T03:15:25;18.90;99.90
3752;DHT22;50827;47.014;7.652;2023-07-29T03:17:52;19.00;99.90
3752;DHT22;50827;47.014;7.652;2023-07-29T03:20:19;19.00;99.90
3752;DHT22;50827;47.014;7.652;2023-07-29T03:22:46;19.00;99.90
3752;DHT22;50827;47.014;7.652;2023-07-29T03:25:13;19.10;99.90
3752;DHT22;50827;47.014;7.652;2023-07-29T03:27:40;19.00;99.90
3752;DHT22;50827;47.014;7.652;2023-07-29T03:30:07;19.10;99.90
3752;DHT22;50827;47.014;7.652;2023-07-29T03:32:34;19.10;99.90
3752;DHT22;50827;47.014;7.652;2023-07-29T03:35:00;19.10;99.90
3752;DHT22;50827;47.014;7.652;2023-07-29T03:37:27;19.10;99.90
3752;DHT22;50827;47.014;7.652;2023-07-29T03:39:54;19.00;99.90
3752;DHT22;50827;47.014;7.652;2023-07-29T03:42:20;18.90;99.90
3752;DHT22;50827;47.014;7.652;2023-07-29T03:44:47;18.90;99.90
3752;DHT22;50827;47.014;7.652;2023-07-29T03:47:14;18.90;99.90
3752;DHT22;50827;47.014;7.652;2023-07-29T03:49:40;18.80;99.90
3752;DHT22;50827;47.014;7.652;2023-07-29T03:52:07;18.80;99.90
3752;DHT22;50827;47.014;7.652;2023-07-29T03:54:34;18.70;99.90
3752;DHT22;50827;47.014;7.652;2023-07-29T03:57:01;18.70;99.90
3752;DHT22;50827;47.014;7.652;2023-07-29T03:59:27;18.70;99.90
3752;DHT22;50827;47.014;7.652;2023-07-29T04:01:54;18.70;99.90
3752;DHT22;50827;47.014;7.652;2023-07-29T04:04:21;18.60;99.90
3752;DHT22;50827;47.014;7.652;2023-07-29T04:06:47;18.60;99.90
3752;DHT22;50827;47.014;7.652;2023-07-29T04:09:14;18.60;99.90
3752;DHT22;50827;47.014;7.652;2023-07-29T04:11:41;18.50;99.90
3752;DHT22;50827;47.014;7.652;2023-07-29T04:14:08;18.40;99.90
3752;DHT22;50827;47.014;7.652;2023-07-29T04:16:34;18.50;99.90
3752;DHT22;50827;47.014;7.652;2023-07-29T04:19:01;18.50;99.90
3752;DHT22;50827;47.014;7.652;2023-07-29T04:21:28;18.50;99.90
3752;DHT22;50827;47.014;7.652;2023-07-29T04:23:55;18.50;99.90
3752;DHT22;50827;47.014;7.652;2023-07-29T04:26:22;18.60;99.90
3752;DHT22;50827;47.014;7.652;2023-07-29T04:28:48;18.60;99.90
3752;DHT22;50827;47.014;7.652;2023-07-29T04:31:15;18.50;99.90
3752;DHT22;50827;47.014;7.652;2023-07-29T04:33:42;18.60;99.90
3752;DHT22;50827;47.014;7.652;2023-07-29T04:36:08;18.60;99.90
3752;DHT22;50827;47.014;7.652;2023-07-29T04:38:37;18.60;99.90
3752;DHT22;50827;47.014;7.652;2023-07-29T04:41:04;18.60;99.90
3752;DHT22;50827;47.014;7.652;2023-07-29T04:43:33;18.50;99.90
3752;DHT22;50827;47.014;7.652;2023-07-29T04:46:00;18.60;99.90
3752;DHT22;50827;47.014;7.652;2023-07-29T04:48:27;18.60;99.90
3752;DHT22;50827;47.014;7.652;2023-07-29T04:50:53;18.70;99.90
3752;DHT22;50827;47.014;7.652;2023-07-29T04:53:20;18.70;99.90
3752;DHT22;50827;47.014;7.652;2023-07-29T04:55:47;18.80;99.90
3752;DHT22;50827;47.014;7.652;2023-07-29T04:58:13;18.80;99.90
3752;DHT22;50827;47.014;7.652;2023-07-29T05:00:40;18.90;99.90
3752;DHT22;50827;47.014;7.652;2023-07-29T05:03:07;18.90;99.90
3752;DHT22;50827;47.014;7.652;2023-07-29T05:05:34;18.90;99.90
3752;DHT22;50827;47.014;7.652;2023-07-29T05:08:01;18.90;99.90
3752;DHT22;50827;47.014;7.652;2023-07-29T05:10:27;19.00;99.90
3752;DHT22;50827;47.014;7.652;2023-07-29T05:12:54;19.00;99.90
3752;DHT22;50827;47.014;7.652;2023-07-29T05:15:21;19.00;99.90
3752;DHT22;50827;47.014;7.652;2023-07-29T05:17:47;19.00;99.90
3752;DHT22;50827;47.014;7.652;2023-07-29T05:20:14;18.90;99.90
3752;DHT22;50827;47.014;7.652;2023-07-29T05:22:41;19.00;99.90
3752;DHT22;50827;47.014;7.652;2023-07-29T05:25:08;19.00;99.90
3752;DHT22;50827;47.014;7.652;2023-07-29T05:27:39;19.10;99.90
3752;DHT22;50827;47.014;7.652;2023-07-29T05:30:06;19.20;99.90
3752;DHT22;50827;47.014;7.652;2023-07-29T05:32:36;19.30;99.90
3752;DHT22;50827;47.014;7.652;2023-07-29T05:35:03;19.30;99.90
3752;DHT22;50827;47.014;7.652;2023-07-29T05:37:30;19.20;99.90
3752;DHT22;50827;47.014;7.652;2023-07-29T05:39:57;19.20;99.90
3752;DHT22;50827;47.014;7.652;2023-07-29T05:42:24;19.30;99.90
3752;DHT22;50827;47.014;7.652;2023-07-29T05:44:50;19.30;99.90
3752;DHT22;50827;47.014;7.652;2023-07-29T05:47:17;19.40;99.90
3752;DHT22;50827;47.014;7.652;2023-07-29T05:49:44;19.40;99.90
3752;DHT22;50827;47.014;7.652;2023-07-29T05:52:10;19.40;99.90
3752;DHT22;50827;47.014;7.652;2023-07-29T05:54:37;19.50;99.90
3752;DHT22;50827;47.014;7.652;2023-07-29T05:57:04;19.60;99.90
3752;DHT22;50827;47.014;7.652;2023-07-29T05:59:32;19.70;99.90
3752;DHT22;50827;47.014;7.652;2023-07-29T06:01:59;19.80;99.90
3752;DHT22;50827;47.014;7.652;2023-07-29T06:04:25;19.80;99.90
3752;DHT22;50827;47.014;7.652;2023-07-29T06:06:52;19.80;99.90
3752;DHT22;50827;47.014;7.652;2023-07-29T06:09:19;19.90;99.90
3752;DHT22;50827;47.014;7.652;2023-07-29T06:11:46;20.00;99.90
3752;DHT22;50827;47.014;7.652;2023-07-29T06:14:12;20.00;99.90
3752;DHT22;50827;47.014;7.652;2023-07-29T06:16:39;20.00;99.90
3752;DHT22;50827;47.014;7.652;2023-07-29T06:19:06;19.90;99.90
3752;DHT22;50827;47.014;7.652;2023-07-29T06:21:35;19.90;99.90
3752;DHT22;50827;47.014;7.652;2023-07-29T06:24:02;19.90;99.90
3752;DHT22;50827;47.014;7.652;2023-07-29T06:26:29;19.90;99.90
3752;DHT22;50827;47.014;7.652;2023-07-29T06:28:56;20.00;99.90
3752;DHT22;50827;47.014;7.652;2023-07-29T06:31:24;20.10;99.90
3752;DHT22;50827;47.014;7.652;2023-07-29T06:33:51;20.10;99.90
3752;DHT22;50827;47.014;7.652;2023-07-29T06:36:21;20.10;99.90
3752;DHT22;50827;47.014;7.652;2023-07-29T06:38:48;20.20;99.90
3752;DHT22;50827;47.014;7.652;2023-07-29T06:41:15;20.30;99.90
3752;DHT22;50827;47.014;7.652;2023-07-29T06:43:45;20.50;99.90
3752;DHT22;50827;47.014;7.652;2023-07-29T06:46:11;20.60;99.90
3752;DHT22;50827;47.014;7.652;2023-07-29T06:48:40;20.70;99.90
3752;DHT22;50827;47.014;7.652;2023-07-29T06:51:10;20.80;99.90
3752;DHT22;50827;47.014;7.652;2023-07-29T06:53:37;20.90;99.90
3752;DHT22;50827;47.014;7.652;2023-07-29T06:56:04;20.90;99.90
3752;DHT22;50827;47.014;7.652;2023-07-29T06:58:31;20.90;99.90
3752;DHT22;50827;47.014;7.652;2023-07-29T07:00:58;21.00;99.90
3752;DHT22;50827;47.014;7.652;2023-07-29T07:03:24;21.10;99.90
3752;DHT22;50827;47.014;7.652;2023-07-29T07:05:51;21.10;99.90
3752;DHT22;50827;47.014;7.652;2023-07-29T07:08:18;21.10;99.90
3752;DHT22;50827;47.014;7.652;2023-07-29T07:10:46;21.10;99.90
3752;DHT22;50827;47.014;7.652;2023-07-29T07:13:13;21.10;99.90
3752;DHT22;50827;47.014;7.652;2023-07-29T07:15:40;21.10;99.90
3752;DHT22;50827;47.014;7.652;2023-07-29T07:18:07;21.10;99.90
3752;DHT22;50827;47.014;7.652;2023-07-29T07:20:34;21.20;99.90
3752;DHT22;50827;47.014;7.652;2023-07-29T07:23:01;21.10;99.90
3752;DHT22;50827;47.014;7.652;2023-07-29T07:25:28;21.20;99.90
3752;DHT22;50827;47.014;7.652;2023-07-29T07:27:54;21.20;99.90
3752;DHT22;50827;47.014;7.652;2023-07-29T07:30:21;21.30;99.90
3752;DHT22;50827;47.014;7.652;2023-07-29T07:32:48;21.40;99.90
3752;DHT22;50827;47.014;7.652;2023-07-29T07:35:16;21.40;99.90
3752;DHT22;50827;47.014;7.652;2023-07-29T07:37:43;21.50;99.90
3752;DHT22;50827;47.014;7.652;2023-07-29T07:40:10;21.50;99.90
3752;DHT22;50827;47.014;7.652;2023-07-29T07:42:37;21.60;99.90
3752;DHT22;50827;47.014;7.652;2023-07-29T07:45:04;21.60;99.90
3752;DHT22;50827;47.014;7.652;2023-07-29T07:47:31;21.70;99.90
3752;DHT22;50827;47.014;7.652;2023-07-29T07:49:58;21.70;99.90
3752;DHT22;50827;47.014;7.652;2023-07-29T07:52:25;21.80;99.90
3752;DHT22;50827;47.014;7.652;2023-07-29T07:54:52;21.80;99.90
3752;DHT22;50827;47.014;7.652;2023-07-29T07:57:21;21.90;99.90
3752;DHT22;50827;47.014;7.652;2023-07-29T07:59:47;21.80;99.90
3752;DHT22;50827;47.014;7.652;2023-07-29T08:02:14;21.80;99.90
3752;DHT22;50827;47.014;7.652;2023-07-29T08:04:42;22.00;99.90
3752;DHT22;50827;47.014;7.652;2023-07-29T08:07:09;22.10;99.90
3752;DHT22;50827;47.014;7.652;2023-07-29T08:09:36;22.10;99.90
3752;DHT22;50827;47.014;7.652;2023-07-29T08:12:03;22.20;99.90
3752;DHT22;50827;47.014;7.652;2023-07-29T08:14:29;22.40;99.90
3752;DHT22;50827;47.014;7.652;2023-07-29T08:16:56;22.40;99.90
3752;DHT22;50827;47.014;7.652;2023-07-29T08:19:23;22.60;99.90
3752;DHT22;50827;47.014;7.652;2023-07-29T08:21:49;22.60;99.90
3752;DHT22;50827;47.014;7.652;2023-07-29T08:24:19;22.70;99.90
3752;DHT22;50827;47.014;7.652;2023-07-29T08:26:45;22.80;99.90
3752;DHT22;50827;47.014;7.652;2023-07-29T08:29:12;22.80;99.90
3752;DHT22;50827;47.014;7.652;2023-07-29T08:31:39;22.90;99.90
3752;DHT22;50827;47.014;7.652;2023-07-29T08:34:06;23.00;99.90
3752;DHT22;50827;47.014;7.652;2023-07-29T08:36:32;23.10;99.90
3752;DHT22;50827;47.014;7.652;2023-07-29T08:38:59;23.20;99.90
3752;DHT22;50827;47.014;7.652;2023-07-29T08:41:31;23.20;99.90
3752;DHT22;50827;47.014;7.652;2023-07-29T08:44:12;23.30;99.90
3752;DHT22;50827;47.014;7.652;2023-07-29T08:46:39;23.30;99.90
3752;DHT22;50827;47.014;7.652;2023-07-29T08:49:07;23.40;99.90
3752;DHT22;50827;47.014;7.652;2023-07-29T08:51:34;23.50;99.90
3752;DHT22;50827;47.014;7.652;2023-07-29T08:54:02;23.50;99.90
3752;DHT22;50827;47.014;7.652;2023-07-29T08:56:30;23.60;99.90
3752;DHT22;50827;47.014;7.652;2023-07-29T08:58:57;23.70;99.90
3752;DHT22;50827;47.014;7.652;2023-07-29T09:01:24;23.80;99.90
3752;DHT22;50827;47.014;7.652;2023-07-29T09:03:51;23.80;99.90
3752;DHT22;50827;47.014;7.652;2023-07-29T09:06:18;23.80;99.90
3752;DHT22;50827;47.014;7.652;2023-07-29T09:08:47;23.80;99.90
3752;DHT22;50827;47.014;7.652;2023-07-29T09:11:14;23.80;99.90
3752;DHT22;50827;47.014;7.652;2023-07-29T09:13:43;23.90;99.90
3752;DHT22;50827;47.014;7.652;2023-07-29T09:16:10;23.90;99.90
3752;DHT22;50827;47.014;7.652;2023-07-29T09:18:37;23.90;99.90
3752;DHT22;50827;47.014;7.652;2023-07-29T09:21:04;24.00;99.90
3752;DHT22;50827;47.014;7.652;2023-07-29T09:23:41;24.00;99.90
3752;DHT22;50827;47.014;7.652;2023-07-29T09:26:08;24.10;99.90
3752;DHT22;50827;47.014;7.652;2023-07-29T09:28:38;24.20;99.90
3752;DHT22;50827;47.014;7.652;2023-07-29T09:31:06;24.20;99.90
3752;DHT22;50827;47.014;7.652;2023-07-29T09:33:34;24.20;99.90
3752;DHT22;50827;47.014;7.652;2023-07-29T09:36:09;24.30;99.90
3752;DHT22;50827;47.014;7.652;2023-07-29T09:38:37;24.30;99.90
3752;DHT22;50827;47.014;7.652;2023-07-29T09:41:03;24.40;99.90
3752;DHT22;50827;47.014;7.652;2023-07-29T09:43:32;24.40;99.90
3752;DHT22;50827;47.014;7.652;2023-07-29T09:46:03;24.40;99.90
3752;DHT22;50827;47.014;7.652;2023-07-29T09:48:37;24.60;99.90
3752;DHT22;50827;47.014;7.652;2023-07-29T09:51:14;24.70;99.90
3752;DHT22;50827;47.014;7.652;2023-07-29T09:53:45;24.80;99.90
3752;DHT22;50827;47.014;7.652;2023-07-29T09:56:14;24.90;99.90
3752;DHT22;50827;47.014;7.652;2023-07-29T09:58:43;24.90;99.90
3752;DHT22;50827;47.014;7.652;2023-07-29T10:01:10;25.00;99.90
3752;DHT22;50827;47.014;7.652;2023-07-29T10:03:37;25.00;99.90
3752;DHT22;50827;47.014;7.652;2023-07-29T10:06:05;25.00;99.90
3752;DHT22;50827;47.014;7.652;2023-07-29T10:08:33;25.00;99.90
3752;DHT22;50827;47.014;7.652;2023-07-29T10:11:02;25.10;99.90
3752;DHT22;50827;47.014;7.652;2023-07-29T10:13:29;25.20;99.90
3752;DHT22;50827;47.014;7.652;2023-07-29T10:15:56;25.20;99.90
3752;DHT22;50827;47.014;7.652;2023-07-29T10:18:24;25.20;99.90
3752;DHT22;50827;47.014;7.652;2023-07-29T10:20:51;25.30;99.90
3752;DHT22;50827;47.014;7.652;2023-07-29T10:23:21;25.30;99.90
3752;DHT22;50827;47.014;7.652;2023-07-29T10:26:03;25.30;99.90
3752;DHT22;50827;47.014;7.652;2023-07-29T10:28:32;25.50;99.90
3752;DHT22;50827;47.014;7.652;2023-07-29T10:30:59;25.60;99.90
3752;DHT22;50827;47.014;7.652;2023-07-29T10:33:26;25.60;99.90
3752;DHT22;50827;47.014;7.652;2023-07-29T10:35:54;25.80;99.90
3752;DHT22;50827;47.014;7.652;2023-07-29T10:38:22;25.90;99.90
3752;DHT22;50827;47.014;7.652;2023-07-29T10:40:51;25.90;99.90
3752;DHT22;50827;47.014;7.652;2023-07-29T10:43:25;26.00;99.90
3752;DHT22;50827;47.014;7.652;2023-07-29T10:45:52;26.10;99.90
3752;DHT22;50827;47.014;7.652;2023-07-29T10:48:40;26.10;99.90
3752;DHT22;50827;47.014;7.652;2023-07-29T10:51:34;26.10;99.90
3752;DHT22;50827;47.014;7.652;2023-07-29T10:54:12;26.00;99.90
3752;DHT22;50827;47.014;7.652;2023-07-29T10:56:42;26.10;99.90
3752;DHT22;50827;47.014;7.652;2023-07-29T11:01:42;26.20;99.90
3752;DHT22;50827;47.014;7.652;2023-07-29T11:09:53;26.20;99.90
3752;DHT22;50827;47.014;7.652;2023-07-29T11:17:38;26.10;99.90
3752;DHT22;50827;47.014;7.652;2023-07-29T11:20:06;26.10;99.90
3752;DHT22;50827;47.014;7.652;2023-07-29T11:22:34;26.10;99.90
3752;DHT22;50827;47.014;7.652;2023-07-29T11:25:02;26.20;99.90
3752;DHT22;50827;47.014;7.652;2023-07-29T11:27:29;26.20;99.90
3752;DHT22;50827;47.014;7.652;2023-07-29T11:30:00;26.20;99.90
3752;DHT22;50827;47.014;7.652;2023-07-29T11:32:27;26.20;99.90
3752;DHT22;50827;47.014;7.652;2023-07-29T11:34:54;26.20;99.90
3752;DHT22;50827;47.014;7.652;2023-07-29T11:37:20;26.20;99.90
3752;DHT22;50827;47.014;7.652;2023-07-29T11:39:48;26.30;99.90
3752;DHT22;50827;47.014;7.652;2023-07-29T11:42:15;26.20;99.90
3752;DHT22;50827;47.014;7.652;2023-07-29T11:44:42;26.20;99.90
3752;DHT22;50827;47.014;7.652;2023-07-29T11:47:12;26.20;99.90
3752;DHT22;50827;47.014;7.652;2023-07-29T11:49:40;26.20;99.90
3752;DHT22;50827;47.014;7.652;2023-07-29T11:52:10;26.10;99.90
3752;DHT22;50827;47.014;7.652;2023-07-29T11:54:38;26.10;99.90
3752;DHT22;50827;47.014;7.652;2023-07-29T11:57:09;26.20;99.90
3752;DHT22;50827;47.014;7.652;2023-07-29T11:59:37;26.20;99.90
3752;DHT22;50827;47.014;7.652;2023-07-29T12:02:10;26.10;99.90
3752;DHT22;50827;47.014;7.652;2023-07-29T12:04:38;26.00;99.90
3752;DHT22;50827;47.014;7.652;2023-07-29T12:07:06;25.90;99.90
3752;DHT22;50827;47.014;7.652;2023-07-29T12:09:37;25.80;99.90
3752;DHT22;50827;47.014;7.652;2023-07-29T12:12:04;25.80;99.90
3752;DHT22;50827;47.014;7.652;2023-07-29T12:14:32;25.80;99.90
3752;DHT22;50827;47.014;7.652;2023-07-29T12:17:03;25.70;99.90
3752;DHT22;50827;47.014;7.652;2023-07-29T12:19:37;25.70;99.90
3752;DHT22;50827;47.014;7.652;2023-07-29T12:22:06;25.70;99.90
3752;DHT22;50827;47.014;7.652;2023-07-29T12:24:35;25.70;99.90
3752;DHT22;50827;47.014;7.652;2023-07-29T12:27:02;25.80;99.90
3752;DHT22;50827;47.014;7.652;2023-07-29T12:29:29;25.80;99.90
3752;DHT22;50827;47.014;7.652;2023-07-29T12:32:03;25.70;99.90
3752;DHT22;50827;47.014;7.652;2023-07-29T12:34:30;25.70;99.90
3752;DHT22;50827;47.014;7.652;2023-07-29T12:36:59;25.80;99.90
3752;DHT22;50827;47.014;7.652;2023-07-29T12:39:27;25.80;99.90
3752;DHT22;50827;47.014;7.652;2023-07-29T12:41:56;25.80;99.90
3752;DHT22;50827;47.014;7.652;2023-07-29T12:44:24;25.70;99.90
3752;DHT22;50827;47.014;7.652;2023-07-29T12:46:51;25.70;99.90
3752;DHT22;50827;47.014;7.652;2023-07-29T12:49:18;25.60;99.90
3752;DHT22;50827;47.014;7.652;2023-07-29T12:51:45;25.60;99.90
3752;DHT22;50827;47.014;7.652;2023-07-29T12:54:12;25.50;99.90
3752;DHT22;50827;47.014;7.652;2023-07-29T12:56:38;25.40;99.90
3752;DHT22;50827;47.014;7.652;2023-07-29T12:59:05;25.40;99.90
3752;DHT22;50827;47.014;7.652;2023-07-29T13:01:32;25.40;99.90
3752;DHT22;50827;47.014;7.652;2023-07-29T13:03:59;25.40;99.90
3752;DHT22;50827;47.014;7.652;2023-07-29T13:06:25;25.40;99.90
3752;DHT22;50827;47.014;7.652;2023-07-29T13:08:52;25.40;99.90
3752;DHT22;50827;47.014;7.652;2023-07-29T13:11:19;25.40;99.90
3752;DHT22;50827;47.014;7.652;2023-07-29T13:13:46;25.10;99.90
3752;DHT22;50827;47.014;7.652;2023-07-29T13:16:13;25.20;99.90
3752;DHT22;50827;47.014;7.652;2023-07-29T13:18:39;25.10;99.90
3752;DHT22;50827;47.014;7.652;2023-07-29T13:21:07;25.10;99.90
3752;DHT22;50827;47.014;7.652;2023-07-29T13:23:34;25.10;99.90
3752;DHT22;50827;47.014;7.652;2023-07-29T13:26:01;25.10;99.90
3752;DHT22;50827;47.014;7.652;2023-07-29T13:28:28;25.10;99.90
3752;DHT22;50827;47.014;7.652;2023-07-29T13:30:54;25.00;99.90
3752;DHT22;50827;47.014;7.652;2023-07-29T13:33:21;24.90;99.90
3752;DHT22;50827;47.014;7.652;2023-07-29T13:35:48;24.90;99.90
3752;DHT22;50827;47.014;7.652;2023-07-29T13:38:15;25.00;99.90
3752;DHT22;50827;47.014;7.652;2023-07-29T13:40:42;25.00;99.90
3752;DHT22;50827;47.014;7.652;2023-07-29T13:43:09;24.90;99.90
3752;DHT22;50827;47.014;7.652;2023-07-29T13:45:36;24.90;99.90
3752;DHT22;50827;47.014;7.652;2023-07-29T13:48:03;24.80;99.90
3752;DHT22;50827;47.014;7.652;2023-07-29T13:50:30;24.70;99.90
3752;DHT22;50827;47.014;7.652;2023-07-29T13:52:57;24.80;99.90
3752;DHT22;50827;47.014;7.652;2023-07-29T13:55:24;24.60;99.90
3752;DHT22;50827;47.014;7.652;2023-07-29T13:57:52;24.60;99.90
3752;DHT22;50827;47.014;7.652;2023-07-29T14:00:19;24.60;99.90
3752;DHT22;50827;47.014;7.652;2023-07-29T14:02:46;24.60;99.90
3752;DHT22;50827;47.014;7.652;2023-07-29T14:05:13;24.50;99.90
3752;DHT22;50827;47.014;7.652;2023-07-29T14:07:41;24.40;99.90
3752;DHT22;50827;47.014;7.652;2023-07-29T14:10:07;24.30;99.90
3752;DHT22;50827;47.014;7.652;2023-07-29T14:12:34;24.20;99.90
3752;DHT22;50827;47.014;7.652;2023-07-29T14:15:02;24.10;99.90
3752;DHT22;50827;47.014;7.652;2023-07-29T14:17:29;24.00;99.90
3752;DHT22;50827;47.014;7.652;2023-07-29T14:19:56;24.00;99.90
3752;DHT22;50827;47.014;7.652;2023-07-29T14:22:22;24.00;99.90
3752;DHT22;50827;47.014;7.652;2023-07-29T14:24:49;23.90;99.90
3752;DHT22;50827;47.014;7.652;2023-07-29T14:27:16;23.90;99.90
3752;DHT22;50827;47.014;7.652;2023-07-29T14:29:43;23.90;99.90
3752;DHT22;50827;47.014;7.652;2023-07-29T14:32:10;23.90;99.90
3752;DHT22;50827;47.014;7.652;2023-07-29T14:34:36;23.90;99.90
3752;DHT22;50827;47.014;7.652;2023-07-29T14:37:03;23.90;99.90
3752;DHT22;50827;47.014;7.652;2023-07-29T14:39:30;23.90;99.90
3752;DHT22;50827;47.014;7.652;2023-07-29T14:41:57;23.90;99.90
3752;DHT22;50827;47.014;7.652;2023-07-29T14:44:23;23.90;99.90
3752;DHT22;50827;47.014;7.652;2023-07-29T14:46:50;23.90;99.90
3752;DHT22;50827;47.014;7.652;2023-07-29T14:49:17;23.90;99.90
3752;DHT22;50827;47.014;7.652;2023-07-29T14:51:43;23.80;99.90
3752;DHT22;50827;47.014;7.652;2023-07-29T14:54:10;23.80;99.90
3752;DHT22;50827;47.014;7.652;2023-07-29T14:56:37;23.80;99.90
3752;DHT22;50827;47.014;7.652;2023-07-29T14:59:04;23.70;99.90
3752;DHT22;50827;47.014;7.652;2023-07-29T15:01:31;23.70;99.90
3752;DHT22;50827;47.014;7.652;2023-07-29T15:03:58;23.60;99.90
3752;DHT22;50827;47.014;7.652;2023-07-29T15:06:25;23.50;99.90
3752;DHT22;50827;47.014;7.652;2023-07-29T15:08:51;23.50;99.90
3752;DHT22;50827;47.014;7.652;2023-07-29T15:11:18;23.40;99.90
3752;DHT22;50827;47.014;7.652;2023-07-29T15:13:45;23.30;99.90
3752;DHT22;50827;47.014;7.652;2023-07-29T15:16:11;23.20;99.90
3752;DHT22;50827;47.014;7.652;2023-07-29T15:18:38;23.20;99.90
3752;DHT22;50827;47.014;7.652;2023-07-29T15:21:05;23.20;99.90
3752;DHT22;50827;47.014;7.652;2023-07-29T15:23:32;23.10;99.90
3752;DHT22;50827;47.014;7.652;2023-07-29T15:25:58;23.10;99.90
3752;DHT22;50827;47.014;7.652;2023-07-29T15:28:25;22.90;99.90
3752;DHT22;50827;47.014;7.652;2023-07-29T15:30:52;22.80;99.90
3752;DHT22;50827;47.014;7.652;2023-07-29T15:33:20;22.70;99.90
3752;DHT22;50827;47.014;7.652;2023-07-29T15:35:47;22.60;99.90
3752;DHT22;50827;47.014;7.652;2023-07-29T15:38:15;22.60;99.90
3752;DHT22;50827;47.014;7.652;2023-07-29T15:40:41;22.60;99.90
3752;DHT22;50827;47.014;7.652;2023-07-29T15:43:08;22.60;99.90
3752;DHT22;50827;47.014;7.652;2023-07-29T15:45:35;22.50;99.90
3752;DHT22;50827;47.014;7.652;2023-07-29T15:48:02;22.50;99.90
3752;DHT22;50827;47.014;7.652;2023-07-29T15:50:29;22.40;99.90
3752;DHT22;50827;47.014;7.652;2023-07-29T15:52:56;22.40;99.90
3752;DHT22;50827;47.014;7.652;2023-07-29T15:55:23;22.40;99.90
3752;DHT22;50827;47.014;7.652;2023-07-29T15:57:50;22.40;99.90
3752;DHT22;50827;47.014;7.652;2023-07-29T16:00:18;22.40;99.90
3752;DHT22;50827;47.014;7.652;2023-07-29T16:02:45;22.30;99.90